createdAt,value
2018-05-29T00:01:50.063Z,3.50
2018-05-29T00:04:18.511Z,3.50
2018-05-29T00:06:46.960Z,3.40
2018-05-29T00:09:15.399Z,3.67
2018-05-29T00:11:43.887Z,3.70
2018-05-29T00:14:12.338Z,4.07
2018-05-29T00:16:40.783Z,3.60
2018-05-29T00:19:09.244Z,3.70
2018-05-29T00:21:37.664Z,3.77
2018-05-29T00:24:06.132Z,4.00
2018-05-29T00:26:34.616Z,6.60
2018-05-29T00:29:03.071Z,5.77
2018-05-29T00:31:31.543Z,5.50
2018-05-29T00:34:00.064Z,11.73
2018-05-29T00:36:29.024Z,9.77
2018-05-29T00:38:58.423Z,4.60
2018-05-29T00:41:26.914Z,3.80
2018-05-29T00:43:55.707Z,4.10
2018-05-29T00:46:24.127Z,4.00
2018-05-29T00:48:52.597Z,4.50
2018-05-29T00:51:21.013Z,4.10
2018-05-29T00:53:49.472Z,4.07
2018-05-29T00:56:17.927Z,4.27
2018-05-29T00:58:46.409Z,4.27
2018-05-29T01:01:14.813Z,4.30
2018-05-29T01:03:43.317Z,4.60
2018-05-29T01:06:11.836Z,4.60
2018-05-29T01:08:40.289Z,4.53
2018-05-29T01:11:08.751Z,4.17
2018-05-29T01:13:37.228Z,4.20
2018-05-29T01:16:05.825Z,4.63
2018-05-29T01:18:34.350Z,4.20
2018-05-29T01:21:02.828Z,4.40
2018-05-29T01:23:31.369Z,4.70
2018-05-29T01:25:59.881Z,4.60
2018-05-29T01:28:28.425Z,4.40
2018-05-29T01:30:56.905Z,4.73
2018-05-29T01:33:25.412Z,5.17
2018-05-29T01:35:53.898Z,4.50
2018-05-29T01:38:22.428Z,4.20
2018-05-29T01:40:50.948Z,4.57
2018-05-29T01:43:19.473Z,4.50
2018-05-29T01:45:47.999Z,4.40
2018-05-29T01:48:16.517Z,4.97
2018-05-29T01:50:45.042Z,4.20
2018-05-29T01:53:13.556Z,4.03
2018-05-29T01:55:42.104Z,4.53
2018-05-29T01:58:10.598Z,4.10
2018-05-29T02:00:39.173Z,4.57
2018-05-29T02:03:07.700Z,4.83
2018-05-29T02:05:36.168Z,4.27
2018-05-29T02:08:04.706Z,4.63
2018-05-29T02:10:33.295Z,5.00
2018-05-29T02:13:01.828Z,4.60
2018-05-29T02:15:30.432Z,6.10
2018-05-29T02:17:58.965Z,5.00
2018-05-29T02:20:27.552Z,4.97
2018-05-29T02:22:56.072Z,5.50
2018-05-29T02:25:24.592Z,4.73
2018-05-29T02:27:53.124Z,4.97
2018-05-29T02:30:21.613Z,5.70
2018-05-29T02:32:50.115Z,5.30
2018-05-29T02:35:18.647Z,5.33
2018-05-29T02:37:47.169Z,6.50
2018-05-29T02:40:15.728Z,5.87
2018-05-29T02:42:44.264Z,5.90
2018-05-29T02:45:12.776Z,5.13
2018-05-29T02:47:41.305Z,5.53
2018-05-29T02:50:09.833Z,6.00
2018-05-29T02:52:38.317Z,5.30
2018-05-29T02:55:06.857Z,5.20
2018-05-29T02:57:35.367Z,5.10
2018-05-29T03:00:03.937Z,5.27
2018-05-29T03:02:32.464Z,5.13
2018-05-29T03:05:00.967Z,5.27
2018-05-29T03:07:29.480Z,5.17
2018-05-29T03:09:58.005Z,5.40
2018-05-29T03:12:26.528Z,5.37
2018-05-29T03:14:55.046Z,5.90
2018-05-29T03:17:23.577Z,7.10
2018-05-29T03:19:52.113Z,7.23
2018-05-29T03:22:20.628Z,7.07
2018-05-29T03:24:49.147Z,7.30
2018-05-29T03:27:17.708Z,7.43
2018-05-29T03:29:46.196Z,7.17
2018-05-29T03:32:14.745Z,8.40
2018-05-29T03:34:43.293Z,8.53
2018-05-29T03:37:11.824Z,8.97
2018-05-29T03:39:40.339Z,8.90
2018-05-29T03:42:08.977Z,9.73
2018-05-29T03:44:37.483Z,8.90
2018-05-29T03:47:05.969Z,9.17
2018-05-29T03:49:34.496Z,9.20
2018-05-29T03:52:03.005Z,8.93
2018-05-29T03:54:31.536Z,8.77
2018-05-29T03:57:00.056Z,9.33
2018-05-29T03:59:28.632Z,9.63
2018-05-29T04:01:57.125Z,9.70
2018-05-29T04:04:25.652Z,8.90
2018-05-29T04:06:54.166Z,9.50
2018-05-29T04:09:22.707Z,9.37
2018-05-29T04:11:52.080Z,9.37
2018-05-29T04:14:20.615Z,8.60
2018-05-29T04:16:49.125Z,9.33
2018-05-29T04:19:17.629Z,9.33
2018-05-29T04:21:46.158Z,7.70
2018-05-29T04:24:14.650Z,7.90
2018-05-29T04:26:43.165Z,8.10
2018-05-29T04:29:11.672Z,8.23
2018-05-29T04:31:40.202Z,7.60
2018-05-29T04:34:08.688Z,6.63
2018-05-29T04:36:37.218Z,7.60
2018-05-29T04:39:06.585Z,5.97
2018-05-29T04:41:35.100Z,6.30
2018-05-29T04:44:03.613Z,6.13
2018-05-29T04:46:32.106Z,6.87
2018-05-29T04:49:00.645Z,7.07
2018-05-29T04:51:29.129Z,8.10
2018-05-29T04:53:57.656Z,6.83
2018-05-29T04:56:26.144Z,7.97
2018-05-29T04:58:54.624Z,6.90
2018-05-29T05:01:23.170Z,5.57
2018-05-29T05:03:51.663Z,10.80
2018-05-29T05:06:20.194Z,5.60
2018-05-29T05:08:48.725Z,5.97
2018-05-29T05:11:17.244Z,6.73
2018-05-29T05:13:45.765Z,5.20
2018-05-29T05:16:14.304Z,18.20
2018-05-29T05:18:42.797Z,6.37
2018-05-29T05:21:11.361Z,5.90
2018-05-29T05:23:39.865Z,5.97
2018-05-29T05:26:08.365Z,6.83
2018-05-29T05:28:36.932Z,6.03
2018-05-29T05:31:05.630Z,6.93
2018-05-29T05:33:34.116Z,6.43
2018-05-29T05:36:02.709Z,5.90
2018-05-29T05:38:31.304Z,5.40
2018-05-29T05:40:59.825Z,6.03
2018-05-29T05:43:28.405Z,5.67
2018-05-29T05:45:56.919Z,5.50
2018-05-29T05:48:25.409Z,8.00
2018-05-29T05:50:53.943Z,5.60
2018-05-29T05:53:22.557Z,5.57
2018-05-29T05:55:51.053Z,5.10
2018-05-29T05:58:19.587Z,7.67
2018-05-29T06:00:48.121Z,5.03
2018-05-29T06:03:16.673Z,5.67
2018-05-29T06:05:45.252Z,5.07
2018-05-29T06:08:13.766Z,5.33
2018-05-29T06:10:42.293Z,6.00
2018-05-29T06:13:10.867Z,4.40
2018-05-29T06:15:39.362Z,6.80
2018-05-29T06:18:07.931Z,5.30
2018-05-29T06:20:36.486Z,5.23
2018-05-29T06:23:05.093Z,4.77
2018-05-29T06:25:33.616Z,4.70
2018-05-29T06:28:02.126Z,15.03
2018-05-29T06:30:30.655Z,7.63
2018-05-29T06:32:59.149Z,9.13
2018-05-29T06:35:27.681Z,5.87
2018-05-29T06:37:56.207Z,6.63
2018-05-29T06:40:24.812Z,5.33
2018-05-29T06:42:53.387Z,5.00
2018-05-29T06:45:21.883Z,6.40
2018-05-29T06:47:50.412Z,5.97
2018-05-29T06:50:18.940Z,5.90
2018-05-29T06:52:47.428Z,5.20
2018-05-29T06:55:15.961Z,5.80
2018-05-29T06:57:44.502Z,6.07
2018-05-29T07:00:12.998Z,5.67
2018-05-29T07:02:41.552Z,5.47
2018-05-29T07:05:10.029Z,6.30
2018-05-29T07:07:38.629Z,5.27
2018-05-29T07:10:07.103Z,5.33
2018-05-29T07:12:35.660Z,7.63
2018-05-29T07:15:04.240Z,5.50
2018-05-29T07:17:32.808Z,5.87
2018-05-29T07:20:01.344Z,5.37
2018-05-29T07:22:29.984Z,4.80
2018-05-29T07:24:58.511Z,4.67
2018-05-29T07:27:27.030Z,5.73
2018-05-29T07:29:55.575Z,6.17
2018-05-29T07:32:24.100Z,5.23
2018-05-29T07:34:52.625Z,6.87
2018-05-29T07:37:21.116Z,6.23
2018-05-29T07:39:49.654Z,5.30
2018-05-29T07:42:18.225Z,6.07
2018-05-29T07:44:47.158Z,5.83
2018-05-29T07:47:15.675Z,5.50
2018-05-29T07:49:44.308Z,5.83
2018-05-29T07:52:12.892Z,7.87
2018-05-29T07:54:41.437Z,4.17
2018-05-29T07:57:10.034Z,9.10
2018-05-29T07:59:38.634Z,5.00
2018-05-29T08:02:07.200Z,7.10
2018-05-29T08:04:35.760Z,3.73
2018-05-29T08:07:04.320Z,4.57
2018-05-29T08:09:32.801Z,4.63
2018-05-29T08:12:01.384Z,4.07
2018-05-29T08:14:30.511Z,9.63
2018-05-29T08:16:59.603Z,4.20
2018-05-29T08:19:28.473Z,4.90
2018-05-29T08:21:56.991Z,4.10
2018-05-29T08:24:25.587Z,4.30
2018-05-29T08:26:54.077Z,7.13
2018-05-29T08:29:22.610Z,4.97
2018-05-29T08:31:51.141Z,4.43
2018-05-29T08:34:19.625Z,3.73
2018-05-29T08:36:48.196Z,3.87
2018-05-29T08:39:16.778Z,3.73
2018-05-29T08:41:45.300Z,3.43
2018-05-29T08:44:13.830Z,4.50
2018-05-29T08:46:42.326Z,6.40
2018-05-29T08:49:10.847Z,5.73
2018-05-29T08:51:39.412Z,4.57
2018-05-29T08:54:07.948Z,5.53
2018-05-29T08:56:36.485Z,3.90
2018-05-29T08:59:05.046Z,6.83
2018-05-29T09:01:33.860Z,4.70
2018-05-29T09:04:02.465Z,3.00
2018-05-29T09:06:30.999Z,3.50
2018-05-29T09:08:59.485Z,5.40
2018-05-29T09:11:28.044Z,3.60
2018-05-29T09:13:56.551Z,4.97
2018-05-29T09:16:25.108Z,3.33
2018-05-29T09:18:53.769Z,4.37
2018-05-29T09:21:22.268Z,3.60
2018-05-29T09:23:50.773Z,3.10
2018-05-29T09:26:19.301Z,2.97
2018-05-29T09:28:47.890Z,3.37
2018-05-29T09:31:16.465Z,3.90
2018-05-29T09:33:44.945Z,3.40
2018-05-29T09:36:13.525Z,4.83
2018-05-29T09:38:42.018Z,3.87
2018-05-29T09:41:10.529Z,3.53
2018-05-29T09:43:39.021Z,4.07
2018-05-29T09:46:07.631Z,3.73
2018-05-29T09:48:36.189Z,4.97
2018-05-29T09:51:04.717Z,3.40
2018-05-29T09:53:33.297Z,3.60
2018-05-29T09:56:01.804Z,3.37
2018-05-29T09:58:30.316Z,3.07
2018-05-29T10:00:58.795Z,3.47
2018-05-29T10:03:27.326Z,3.20
2018-05-29T10:05:55.834Z,3.10
2018-05-29T10:08:24.378Z,3.87
2018-05-29T10:10:53.032Z,3.60
2018-05-29T10:13:21.588Z,3.63
2018-05-29T10:15:50.163Z,3.23
2018-05-29T10:18:18.612Z,3.33
2018-05-29T10:20:47.152Z,3.70
2018-05-29T10:23:15.636Z,3.57
2018-05-29T10:25:44.171Z,3.50
2018-05-29T10:28:12.670Z,3.17
2018-05-29T10:30:41.194Z,5.77
2018-05-29T10:33:09.680Z,3.03
2018-05-29T10:35:38.198Z,3.23
2018-05-29T10:38:06.728Z,7.70
2018-05-29T10:40:35.260Z,3.80
2018-05-29T10:43:03.796Z,3.23
2018-05-29T10:45:32.292Z,3.50
2018-05-29T10:48:00.835Z,3.37
2018-05-29T10:50:29.373Z,3.50
2018-05-29T10:52:57.856Z,3.23
2018-05-29T10:55:26.336Z,3.83
2018-05-29T10:57:54.864Z,3.30
2018-05-29T11:00:23.373Z,2.80
2018-05-29T11:02:51.888Z,11.70
2018-05-29T11:05:20.409Z,3.13
2018-05-29T11:07:48.953Z,3.70
2018-05-29T11:10:17.436Z,3.37
2018-05-29T11:12:45.959Z,4.30
2018-05-29T11:15:14.466Z,9.30
2018-05-29T11:17:42.961Z,4.43
2018-05-29T11:20:11.539Z,3.00
2018-05-29T11:22:40.069Z,3.97
2018-05-29T11:25:08.553Z,3.90
2018-05-29T11:27:37.032Z,3.00
2018-05-29T11:30:05.564Z,4.87
2018-05-29T11:32:34.029Z,3.30
2018-05-29T11:35:02.549Z,3.23
2018-05-29T11:37:31.025Z,2.93
2018-05-29T11:39:59.550Z,3.20
2018-05-29T11:42:28.075Z,3.07
2018-05-29T11:44:56.644Z,3.50
2018-05-29T11:47:25.220Z,4.70
2018-05-29T11:49:53.688Z,4.33
2018-05-29T11:52:22.212Z,3.57
2018-05-29T11:54:50.748Z,3.70
2018-05-29T11:57:19.244Z,3.17
2018-05-29T11:59:47.764Z,4.80
2018-05-29T12:02:16.386Z,3.70
2018-05-29T12:04:44.880Z,3.57
2018-05-29T12:07:13.401Z,3.00
2018-05-29T12:09:41.944Z,3.20
2018-05-29T12:15:05.618Z,3.83
2018-05-29T12:17:34.208Z,3.27
2018-05-29T12:20:02.676Z,3.10
2018-05-29T12:22:31.273Z,3.27
2018-05-29T12:24:59.776Z,3.70
2018-05-29T12:27:28.293Z,6.73
2018-05-29T12:29:56.823Z,3.80
2018-05-29T12:32:25.326Z,3.50
2018-05-29T12:34:53.868Z,4.13
2018-05-29T12:37:22.412Z,4.33
2018-05-29T12:39:50.971Z,3.07
2018-05-29T12:42:19.509Z,3.50
2018-05-29T12:44:48.006Z,3.73
2018-05-29T12:47:16.501Z,5.57
2018-05-29T12:49:45.037Z,3.70
2018-05-29T12:52:13.560Z,3.93
2018-05-29T12:54:42.093Z,3.90
2018-05-29T12:57:10.632Z,3.50
2018-05-29T12:59:39.132Z,3.80
2018-05-29T13:02:07.693Z,3.20
2018-05-29T13:04:36.163Z,3.60
2018-05-29T13:07:04.637Z,4.03
2018-05-29T13:09:33.235Z,3.80
2018-05-29T13:12:01.690Z,3.30
2018-05-29T13:14:30.232Z,3.60
2018-05-29T13:16:58.685Z,3.87
2018-05-29T13:19:27.179Z,3.70
2018-05-29T13:21:55.729Z,3.57
2018-05-29T13:24:24.276Z,3.63
2018-05-29T13:26:52.828Z,3.70
2018-05-29T13:29:21.341Z,3.90
2018-05-29T13:31:49.863Z,4.10
2018-05-29T13:34:18.332Z,3.93
2018-05-29T13:36:46.812Z,3.97
2018-05-29T13:39:15.335Z,4.63
2018-05-29T13:41:43.839Z,3.97
2018-05-29T13:44:12.342Z,3.43
2018-05-29T13:46:40.820Z,3.90
2018-05-29T13:49:09.283Z,3.87
2018-05-29T13:51:37.832Z,3.53
2018-05-29T13:54:06.382Z,3.40
2018-05-29T13:56:34.887Z,3.50
2018-05-29T13:59:03.404Z,3.27
2018-05-29T14:01:31.852Z,3.10
2018-05-29T14:04:00.368Z,3.80
2018-05-29T14:06:28.894Z,3.30
2018-05-29T14:08:57.436Z,3.67
2018-05-29T14:11:26.048Z,3.50
2018-05-29T14:13:55.098Z,3.67
2018-05-29T14:16:23.684Z,3.40
2018-05-29T14:18:52.168Z,3.27
2018-05-29T14:21:20.708Z,3.03
2018-05-29T14:23:49.222Z,3.23
2018-05-29T14:26:17.661Z,3.47
2018-05-29T14:28:46.156Z,3.07
2018-05-29T14:31:14.645Z,3.30
2018-05-29T14:33:43.141Z,3.47
2018-05-29T14:36:11.597Z,3.30
2018-05-29T14:38:40.080Z,3.10
2018-05-29T14:41:08.535Z,2.90
2018-05-29T14:43:37.026Z,3.87
2018-05-29T14:46:05.482Z,3.40
2018-05-29T14:48:33.976Z,3.63
2018-05-29T14:51:02.469Z,3.87
2018-05-29T14:53:30.940Z,3.20
2018-05-29T14:55:59.442Z,3.63
2018-05-29T14:58:27.881Z,3.97
2018-05-29T15:00:56.369Z,3.30
2018-05-29T15:03:24.829Z,3.63
2018-05-29T15:05:53.326Z,3.40
2018-05-29T15:08:21.792Z,3.20
2018-05-29T15:10:50.273Z,3.47
2018-05-29T15:13:18.774Z,3.67
2018-05-29T15:15:47.239Z,3.93
2018-05-29T15:18:15.742Z,3.47
2018-05-29T15:20:44.244Z,3.93
2018-05-29T15:23:12.733Z,3.63
2018-05-29T15:25:41.184Z,3.07
2018-05-29T15:28:09.686Z,3.40
2018-05-29T15:30:38.140Z,4.03
2018-05-29T15:33:06.629Z,3.10
2018-05-29T15:35:35.121Z,3.67
2018-05-29T15:38:03.549Z,3.33
2018-05-29T15:40:32.041Z,3.70
2018-05-29T15:43:00.488Z,4.00
2018-05-29T15:45:28.966Z,3.73
2018-05-29T15:47:57.415Z,3.73
2018-05-29T15:50:25.920Z,3.20
2018-05-29T15:52:54.376Z,3.87
2018-05-29T15:55:22.880Z,3.63
2018-05-29T15:57:51.361Z,3.60
2018-05-29T16:00:20.058Z,3.17
2018-05-29T16:02:48.563Z,3.57
2018-05-29T16:05:17.049Z,3.67
2018-05-29T16:07:45.558Z,3.60
2018-05-29T16:10:14.017Z,4.27
2018-05-29T16:12:42.570Z,3.63
2018-05-29T16:15:11.220Z,4.13
2018-05-29T16:17:39.709Z,3.73
2018-05-29T16:20:08.211Z,4.30
2018-05-29T16:22:36.677Z,4.50
2018-05-29T16:25:05.150Z,4.30
2018-05-29T16:27:33.650Z,5.07
2018-05-29T16:30:02.081Z,4.53
2018-05-29T16:32:30.536Z,4.20
2018-05-29T16:34:59.079Z,4.57
2018-05-29T16:37:27.589Z,3.90
2018-05-29T16:39:56.064Z,4.10
2018-05-29T16:42:24.598Z,4.50
2018-05-29T16:44:53.112Z,4.40
2018-05-29T16:47:21.585Z,4.30
2018-05-29T16:49:50.067Z,4.17
2018-05-29T16:52:18.560Z,4.00
2018-05-29T16:54:47.012Z,4.13
2018-05-29T16:57:15.496Z,4.57
2018-05-29T16:59:43.945Z,4.40
2018-05-29T17:02:12.452Z,4.73
2018-05-29T17:04:40.913Z,4.23
2018-05-29T17:07:09.420Z,4.23
2018-05-29T17:09:37.876Z,4.27
2018-05-29T17:12:06.350Z,4.40
2018-05-29T17:14:34.841Z,4.30
2018-05-29T17:17:03.324Z,4.30
2018-05-29T17:19:31.816Z,3.70
2018-05-29T17:22:00.305Z,4.00
2018-05-29T17:24:28.824Z,4.13
2018-05-29T17:26:57.269Z,4.00
2018-05-29T17:29:25.780Z,3.97
2018-05-29T17:31:54.251Z,4.03
2018-05-29T17:34:22.710Z,3.83
2018-05-29T17:36:51.189Z,3.97
2018-05-29T17:39:19.646Z,4.20
2018-05-29T17:41:48.132Z,3.90
2018-05-29T17:44:16.576Z,3.70
2018-05-29T17:46:45.065Z,4.30
2018-05-29T17:49:13.549Z,4.23
2018-05-29T17:51:42.000Z,4.53
2018-05-29T17:54:10.482Z,4.83
2018-05-29T17:56:38.925Z,4.07
2018-05-29T17:59:07.425Z,4.20
2018-05-29T18:01:35.884Z,4.27
2018-05-29T18:04:04.369Z,4.37
2018-05-29T18:06:32.856Z,4.50
2018-05-29T18:09:01.365Z,4.70
2018-05-29T18:11:29.809Z,4.80
2018-05-29T18:13:58.293Z,4.13
2018-05-29T18:16:26.786Z,4.40
2018-05-29T18:18:55.275Z,4.33
2018-05-29T18:21:23.763Z,4.27
2018-05-29T18:23:52.245Z,3.87
2018-05-29T18:26:20.699Z,4.67
2018-05-29T18:28:49.180Z,4.40
2018-05-29T18:31:17.629Z,4.57
2018-05-29T18:33:46.112Z,4.90
2018-05-29T18:36:14.560Z,3.93
2018-05-29T18:38:43.053Z,4.20
2018-05-29T18:41:11.551Z,4.57
2018-05-29T18:43:40.040Z,4.30
2018-05-29T18:46:08.538Z,4.27
2018-05-29T18:48:37.097Z,4.70
2018-05-29T18:51:05.566Z,4.60
2018-05-29T18:53:34.008Z,4.20
2018-05-29T18:56:02.504Z,4.77
2018-05-29T18:58:30.958Z,5.07
2018-05-29T19:00:59.413Z,4.30
2018-05-29T19:03:27.906Z,4.23
2018-05-29T19:05:56.440Z,4.63
2018-05-29T19:08:24.889Z,4.47
2018-05-29T19:10:53.380Z,4.30
2018-05-29T19:13:21.869Z,4.67
2018-05-29T19:15:50.380Z,4.43
2018-05-29T19:18:18.874Z,3.83
2018-05-29T19:20:47.333Z,4.17
2018-05-29T19:23:15.852Z,4.37
2018-05-29T19:25:44.387Z,4.40
2018-05-29T19:28:12.974Z,4.57
2018-05-29T19:30:41.425Z,4.57
2018-05-29T19:33:09.889Z,5.70
2018-05-29T19:35:38.407Z,5.47
2018-05-29T19:38:06.889Z,5.57
2018-05-29T19:40:35.345Z,5.60
2018-05-29T19:43:03.820Z,5.37
2018-05-29T19:45:32.341Z,5.60
2018-05-29T19:48:00.795Z,5.23
2018-05-29T19:50:29.252Z,5.20
2018-05-29T19:52:57.786Z,5.70
2018-05-29T19:55:26.244Z,5.13
2018-05-29T19:57:54.750Z,4.43
2018-05-29T20:00:23.217Z,4.37
2018-05-29T20:02:51.721Z,4.67
2018-05-29T20:05:20.228Z,5.03
2018-05-29T20:07:48.730Z,5.03
2018-05-29T20:10:17.188Z,5.33
2018-05-29T20:12:45.680Z,4.70
2018-05-29T20:15:14.152Z,4.47
2018-05-29T20:17:42.636Z,5.17
2018-05-29T20:20:11.100Z,5.13
2018-05-29T20:22:39.554Z,5.70
2018-05-29T20:25:08.042Z,6.00
2018-05-29T20:27:36.492Z,5.70
2018-05-29T20:30:05.025Z,5.20
2018-05-29T20:32:33.497Z,5.50
2018-05-29T20:35:02.010Z,5.43
2018-05-29T20:37:30.549Z,5.10
2018-05-29T20:39:59.050Z,4.97
2018-05-29T20:42:27.572Z,5.17
2018-05-29T20:44:56.056Z,4.57
2018-05-29T20:47:24.568Z,5.00
2018-05-29T20:49:53.024Z,5.10
2018-05-29T20:52:21.462Z,5.37
2018-05-29T20:54:49.981Z,5.43
2018-05-29T20:57:18.473Z,5.30
2018-05-29T20:59:47.020Z,6.00
2018-05-29T21:02:15.501Z,5.90
2018-05-29T21:04:44.019Z,5.37
2018-05-29T21:07:12.520Z,5.13
2018-05-29T21:09:41.004Z,5.20
2018-05-29T21:12:09.465Z,5.37
2018-05-29T21:14:37.952Z,5.00
2018-05-29T21:17:06.432Z,5.80
2018-05-29T21:19:34.928Z,5.63
2018-05-29T21:22:03.383Z,5.57
2018-05-29T21:24:31.890Z,5.70
2018-05-29T21:27:00.390Z,5.53
2018-05-29T21:29:28.854Z,5.63
2018-05-29T21:31:57.357Z,5.80
2018-05-29T21:34:25.863Z,5.50
2018-05-29T21:36:54.312Z,5.70
2018-05-29T21:39:22.808Z,5.87
2018-05-29T21:41:51.260Z,6.43
2018-05-29T21:44:19.769Z,6.30
2018-05-29T21:46:48.297Z,6.00
2018-05-29T21:49:16.775Z,5.87
2018-05-29T21:51:45.269Z,5.93
2018-05-29T21:54:13.772Z,5.60
2018-05-29T21:56:42.272Z,5.60
2018-05-29T21:59:10.744Z,5.63
2018-05-29T22:01:39.233Z,4.80
2018-05-29T22:04:07.779Z,5.80
2018-05-29T22:06:36.269Z,5.13
2018-05-29T22:09:05.715Z,5.50
2018-05-29T22:11:34.172Z,5.67
2018-05-29T22:14:02.645Z,5.50
2018-05-29T22:16:31.193Z,5.70
2018-05-29T22:18:59.644Z,5.73
2018-05-29T22:21:28.142Z,5.70
2018-05-29T22:23:56.617Z,5.87
2018-05-29T22:26:25.108Z,5.80
2018-05-29T22:28:53.561Z,5.33
2018-05-29T22:31:22.053Z,5.77
2018-05-29T22:33:50.545Z,5.63
2018-05-29T22:36:19.041Z,5.10
2018-05-29T22:38:47.533Z,5.60
2018-05-29T22:41:16.074Z,5.10
2018-05-29T22:43:44.572Z,4.57
2018-05-29T22:46:13.084Z,4.87
2018-05-29T22:48:41.536Z,4.40
2018-05-29T22:51:10.008Z,4.90
2018-05-29T22:53:38.466Z,4.73
2018-05-29T22:56:06.943Z,4.77
2018-05-29T22:58:35.387Z,5.33
2018-05-29T23:01:03.949Z,4.73
2018-05-29T23:03:32.400Z,5.07
2018-05-29T23:06:00.912Z,4.80
2018-05-29T23:08:29.393Z,4.80
2018-05-29T23:10:57.940Z,4.97
2018-05-29T23:13:26.426Z,5.73
2018-05-29T23:15:54.934Z,5.33
2018-05-29T23:18:23.432Z,6.10
2018-05-29T23:20:51.948Z,5.17
2018-05-29T23:23:20.461Z,5.87
2018-05-29T23:25:49.035Z,5.23
2018-05-29T23:28:17.556Z,5.27
2018-05-29T23:30:46.073Z,5.03
2018-05-29T23:33:14.544Z,5.30
2018-05-29T23:35:43.045Z,5.17
2018-05-29T23:38:11.520Z,4.90
2018-05-29T23:40:40.041Z,5.40
2018-05-29T23:43:08.526Z,7.03
2018-05-29T23:45:37.061Z,7.93
2018-05-29T23:48:05.585Z,6.80
2018-05-29T23:50:34.094Z,5.77
2018-05-29T23:53:02.609Z,5.97
2018-05-29T23:55:31.076Z,5.77
2018-05-29T23:57:59.591Z,6.07
